Time;durP1;ratioP1;P1;durP2;ratioP2;P2;SDS_P1;SDS_P2;PMS_P1;PMS_P2;Temp;Humidity;BMP_temperature;BMP_pressure;BME280_temperature;BME280_humidity;BME280_pressure;Samples;Min_cycle;Max_cycle;Signal;HPM_P1;HPM_P2
2023/04/02 00:00:33;;;;;;;39.85;8.52;;;14.20;79.30;;;;;;6216648;23;20000;-80
2023/04/02 00:03:08;;;;;;;38.25;7.68;;;14.20;79.30;;;;;;6216774;23;20331;-80
2023/04/02 00:05:49;;;;;;;32.13;7.05;;;14.20;79.30;;;;;;6216510;23;20008;-78
2023/04/02 00:08:39;;;;;;;34.20;8.07;;;14.20;79.10;;;;;;6216215;23;20423;-79
2023/04/02 00:11:06;;;;;;;39.60;7.97;;;14.10;79.00;;;;;;6216148;23;20013;-79
2023/04/02 00:13:32;;;;;;;35.13;7.47;;;14.10;79.20;;;;;;6216403;23;20079;-80
2023/04/02 00:15:59;;;;;;;36.53;7.88;;;14.10;79.50;;;;;;6215911;23;20091;-78
2023/04/02 00:18:26;;;;;;;48.03;8.52;;;14.10;79.60;;;;;;6216005;23;20456;-78
2023/04/02 00:21:16;;;;;;;31.42;7.20;;;14.10;79.70;;;;;;6216127;23;20461;-80
2023/04/02 00:23:43;;;;;;;26.67;6.68;;;14.00;80.20;;;;;;6215928;23;20000;-79
2023/04/02 00:26:33;;;;;;;40.58;6.93;;;14.00;80.20;;;;;;6216236;23;20032;-78
2023/04/02 00:29:00;;;;;;;31.20;7.00;;;13.90;80.60;;;;;;6216146;23;20052;-79
2023/04/02 00:31:27;;;;;;;35.47;6.70;;;13.90;80.10;;;;;;6216249;23;20167;-79
2023/04/02 00:33:53;;;;;;;34.72;6.82;;;13.90;80.50;;;;;;6215868;23;20008;-79
2023/04/02 00:36:20;;;;;;;37.03;7.85;;;13.80;80.90;;;;;;6189201;23;20335;-78
2023/04/02 00:38:47;;;;;;;42.78;8.80;;;13.80;80.80;;;;;;6216410;23;20009;-79
2023/04/02 00:41:22;;;;;;;36.63;7.22;;;13.80;81.00;;;;;;6216093;23;19996;-78
2023/04/02 00:43:50;;;;;;;33.28;7.35;;;13.80;81.30;;;;;;6216822;23;20058;-79
2023/04/02 00:46:26;;;;;;;32.47;6.47;;;13.80;81.50;;;;;;6216336;23;20005;-79
2023/04/02 00:49:09;;;;;;;34.88;6.47;;;13.80;82.10;;;;;;6216055;23;20502;-79
2023/04/02 00:51:40;;;;;;;34.50;7.70;;;13.70;82.40;;;;;;6216098;23;20008;-77
2023/04/02 00:54:14;;;;;;;38.08;7.60;;;13.80;81.70;;;;;;6215954;23;20224;-80
2023/04/02 00:56:44;;;;;;;32.83;7.43;;;13.80;81.90;;;;;;6189055;23;20004;-77
2023/04/02 00:59:42;;;;;;;40.42;7.80;;;13.70;81.60;;;;;;6215778;23;20007;-78
2023/04/02 01:02:16;;;;;;;37.40;7.47;;;13.80;82.00;;;;;;6215250;23;20012;-79
2023/04/02 01:04:50;;;;;;;38.55;7.47;;;13.70;81.90;;;;;;6215454;23;20000;-78
2023/04/02 01:07:17;;;;;;;32.10;7.10;;;13.70;81.90;;;;;;6215488;23;20004;-79
2023/04/02 01:10:12;;;;;;;30.92;8.85;;;13.60;81.80;;;;;;6215237;23;19997;-78
2023/04/02 01:12:51;;;;;;;36.55;8.80;;;13.50;82.60;;;;;;6214494;23;20459;-79
2023/04/02 01:15:32;;;;;;;30.13;8.85;;;13.40;82.50;;;;;;6187997;23;20265;-79
2023/04/02 01:18:12;;;;;;;33.03;9.07;;;13.30;81.60;;;;;;6215302;23;20000;-79
2023/04/02 01:20:49;;;;;;;32.78;9.13;;;13.30;81.90;;;;;;6215105;23;20016;-79
2023/04/02 01:23:18;;;;;;;38.20;9.52;;;13.20;81.80;;;;;;6215129;23;20008;-78
2023/04/02 01:25:55;;;;;;;27.77;10.05;;;13.20;81.50;;;;;;6214939;23;20376;-78
2023/04/02 01:28:45;;;;;;;40.75;10.15;;;13.10;80.90;;;;;;6215226;23;20076;-78
2023/04/02 01:31:11;;;;;;;28.50;9.30;;;13.10;80.40;;;;;;6215056;23;20039;-77
2023/04/02 01:33:40;;;;;;;28.33;8.90;;;12.90;79.30;;;;;;6188159;23;20091;-78
2023/04/02 01:36:17;;;;;;;30.58;9.02;;;12.90;79.60;;;;;;6214868;23;20362;-79
2023/04/02 01:38:57;;;;;;;30.90;9.18;;;12.90;79.50;;;;;;6215076;23;20551;-78
2023/04/02 01:41:35;;;;;;;27.55;9.45;;;12.80;79.00;;;;;;6214952;23;20005;-78
2023/04/02 01:44:07;;;;;;;29.70;9.13;;;12.70;79.40;;;;;;6215134;23;20005;-79
2023/04/02 01:46:37;;;;;;;32.25;9.48;;;12.70;78.60;;;;;;6214992;23;20008;-78
2023/04/02 01:49:12;;;;;;;29.48;9.13;;;12.70;78.10;;;;;;6214505;23;20005;-78
2023/04/02 01:51:42;;;;;;;32.22;8.48;;;12.80;78.10;;;;;;6214687;23;20492;-79
2023/04/02 01:54:08;;;;;;;22.27;8.52;;;12.80;77.70;;;;;;6214963;23;20500;-78
2023/04/02 01:56:34;;;;;;;27.10;9.32;;;12.70;77.00;;;;;;6214868;23;20008;-79
2023/04/02 01:59:02;;;;;;;24.33;8.75;;;12.60;76.80;;;;;;6215286;23;20363;-77
2023/04/02 02:01:44;;;;;;;25.95;8.88;;;12.60;76.70;;;;;;6214872;23;20005;-79
2023/04/02 02:04:15;;;;;;;25.33;9.35;;;12.60;76.80;;;;;;6191134;23;20001;-78
2023/04/02 02:06:42;;;;;;;26.10;8.52;;;12.60;76.50;;;;;;6214987;23;20362;-79
2023/04/02 02:09:16;;;;;;;29.75;8.98;;;12.60;76.30;;;;;;6214772;23;20000;-79
2023/04/02 02:11:42;;;;;;;26.70;8.50;;;12.60;76.20;;;;;;6212585;23;20012;-77
2023/04/02 02:14:15;;;;;;;23.25;7.82;;;12.70;76.00;;;;;;6214523;23;20076;-78
2023/04/02 02:16:42;;;;;;;24.42;7.35;;;12.70;75.80;;;;;;6214591;23;20039;-78
2023/04/02 02:19:17;;;;;;;22.83;8.23;;;12.70;75.30;;;;;;6214887;23;20001;-80
2023/04/02 02:21:47;;;;;;;19.60;7.13;;;12.70;75.10;;;;;;6214564;23;20308;-78
2023/04/02 02:24:27;;;;;;;24.40;6.60;;;12.70;74.90;;;;;;6215051;23;20047;-79
2023/04/02 02:27:02;;;;;;;20.35;5.90;;;12.60;74.70;;;;;;6215497;23;20068;-79
2023/04/02 02:29:34;;;;;;;22.95;5.70;;;12.60;74.50;;;;;;6215077;23;20007;-80
2023/04/02 02:32:00;;;;;;;20.15;5.40;;;12.50;74.40;;;;;;6215145;23;20082;-78
2023/04/02 02:34:35;;;;;;;18.08;6.53;;;12.50;74.30;;;;;;6217107;23;20052;-78
2023/04/02 02:37:06;;;;;;;19.48;5.90;;;12.50;73.90;;;;;;6230881;23;20019;-79
2023/04/02 02:40:00;;;;;;;18.48;5.57;;;12.50;73.90;;;;;;6224038;23;20005;-78
2023/04/02 02:42:27;;;;;;;16.23;5.22;;;12.50;73.60;;;;;;6220024;23;20015;-78
2023/04/02 02:44:56;;;;;;;20.48;5.25;;;12.50;73.30;;;;;;6202080;23;20056;-78
2023/04/02 02:47:28;;;;;;;18.33;5.25;;;12.50;73.40;;;;;;6215666;23;20008;-79
2023/04/02 02:49:57;;;;;;;22.60;5.80;;;12.50;73.40;;;;;;6214915;23;20041;-78
2023/04/02 02:52:30;;;;;;;16.15;5.28;;;12.50;73.30;;;;;;6214255;23;20143;-77
2023/04/02 02:55:07;;;;;;;18.38;5.43;;;12.50;73.20;;;;;;6214772;23;19997;-78
2023/04/02 02:57:39;;;;;;;21.98;6.00;;;12.40;73.30;;;;;;6214826;23;20008;-79
2023/04/02 03:00:08;;;;;;;19.67;6.60;;;12.40;73.30;;;;;;6215219;23;20023;-78
2023/04/02 03:02:37;;;;;;;21.20;5.25;;;12.40;73.40;;;;;;6216568;23;20005;-78
2023/04/02 03:05:06;;;;;;;21.52;5.75;;;12.50;73.40;;;;;;6216614;23;20025;-79
2023/04/02 03:07:32;;;;;;;15.57;4.43;;;12.40;73.30;;;;;;6217045;23;20000;-77
2023/04/02 03:10:16;;;;;;;15.63;5.15;;;12.40;73.10;;;;;;6216958;23;20434;-80
2023/04/02 03:13:03;;;;;;;13.50;4.72;;;12.30;73.00;;;;;;6216534;23;20014;-79
2023/04/02 03:15:46;;;;;;;17.88;5.50;;;12.20;72.90;;;;;;6216279;23;20004;-78
2023/04/02 03:18:30;;;;;;;18.40;3.90;;;12.20;73.00;;;;;;6216391;23;20001;-79
2023/04/02 03:21:08;;;;;;;21.90;5.25;;;12.10;72.70;;;;;;6216659;23;20780;-78
2023/04/02 03:23:39;;;;;;;19.40;5.38;;;12.00;72.90;;;;;;6216535;23;20340;-78
2023/04/02 03:26:30;;;;;;;17.38;4.82;;;12.00;73.20;;;;;;6216212;23;20016;-78
2023/04/02 03:29:19;;;;;;;15.38;5.25;;;12.00;72.80;;;;;;6216587;23;19996;-80
2023/04/02 03:31:55;;;;;;;22.17;5.55;;;12.00;73.00;;;;;;6216193;23;20012;-79
2023/04/02 03:34:32;;;;;;;16.38;4.95;;;12.10;72.90;;;;;;6216328;23;20000;-78
2023/04/02 03:37:19;;;;;;;19.48;5.20;;;12.00;72.80;;;;;;6216420;23;20091;-79
2023/04/02 03:39:59;;;;;;;14.82;4.78;;;12.00;72.70;;;;;;6216254;23;20004;-79
2023/04/02 03:42:29;;;;;;;18.95;5.18;;;12.00;72.80;;;;;;6216375;23;20004;-78
2023/04/02 03:45:15;;;;;;;17.98;5.80;;;12.00;72.80;;;;;;6216013;23;20015;-78
2023/04/02 03:48:03;;;;;;;22.52;7.07;;;11.90;73.00;;;;;;6215973;23;19997;-79
2023/04/02 03:50:44;;;;;;;17.30;4.70;;;11.80;72.80;;;;;;6189224;23;20005;-78
2023/04/02 03:53:11;;;;;;;17.25;5.00;;;11.70;72.90;;;;;;6216413;23;20001;-79
2023/04/02 03:55:39;;;;;;;20.45;5.10;;;11.70;73.00;;;;;;6215961;23;20024;-79
2023/04/02 03:58:19;;;;;;;18.80;5.20;;;11.70;73.10;;;;;;6216667;23;20008;-77
2023/04/02 04:00:54;;;;;;;18.50;5.35;;;11.70;72.90;;;;;;6216591;23;20427;-78
2023/04/02 04:03:42;;;;;;;20.42;5.35;;;11.60;73.00;;;;;;6215890;23;20027;-77
2023/04/02 04:06:19;;;;;;;25.13;6.18;;;11.60;73.50;;;;;;6215918;23;20007;-78
2023/04/02 04:09:10;;;;;;;17.40;5.20;;;11.60;73.30;;;;;;6189147;23;20008;-78
2023/04/02 04:11:47;;;;;;;20.48;6.25;;;11.60;73.20;;;;;;6201143;23;20086;-78
2023/04/02 04:14:25;;;;;;;23.83;5.65;;;11.60;73.20;;;;;;6215993;23;20003;-77
2023/04/02 04:17:12;;;;;;;19.45;5.63;;;11.60;73.50;;;;;;6215647;23;20407;-78
2023/04/02 04:19:44;;;;;;;18.48;4.97;;;11.60;73.20;;;;;;6215739;23;20055;-78
2023/04/02 04:22:17;;;;;;;17.85;5.90;;;11.50;73.40;;;;;;6215429;23;20074;-77
2023/04/02 04:24:45;;;;;;;24.55;5.72;;;11.50;73.20;;;;;;6189062;23;20066;-78
2023/04/02 04:27:42;;;;;;;18.45;5.95;;;11.60;73.40;;;;;;6216359;23;20009;-78
2023/04/02 04:30:29;;;;;;;20.85;6.22;;;11.50;73.10;;;;;;6189222;23;20449;-79
2023/04/02 04:33:21;;;;;;;19.60;5.45;;;11.50;73.00;;;;;;6215710;23;20008;-78
2023/04/02 04:35:54;;;;;;;20.30;5.22;;;11.50;73.10;;;;;;6215456;23;20434;-78
2023/04/02 04:38:39;;;;;;;19.27;5.13;;;11.50;73.00;;;;;;6215752;23;20004;-80
2023/04/02 04:41:14;;;;;;;20.00;5.13;;;11.50;73.00;;;;;;6215843;23;20012;-79
2023/04/02 04:43:45;;;;;;;16.45;5.00;;;11.50;73.00;;;;;;6215595;23;20378;-78
2023/04/02 04:46:28;;;;;;;14.63;4.85;;;11.50;72.90;;;;;;6215386;23;20005;-78
2023/04/02 04:49:18;;;;;;;17.20;4.85;;;11.50;72.70;;;;;;6215346;23;20430;-78
2023/04/02 04:52:14;;;;;;;20.90;5.70;;;11.60;72.80;;;;;;6189782;23;20020;-78
2023/04/02 04:54:41;;;;;;;17.80;5.13;;;11.50;72.70;;;;;;6219161;23;20005;-78
2023/04/02 04:57:21;;;;;;;13.80;4.72;;;11.50;73.00;;;;;;6220998;23;20009;-78
2023/04/02 04:59:56;;;;;;;19.63;5.05;;;11.50;72.80;;;;;;6216111;23;19997;-78
2023/04/02 05:02:32;;;;;;;20.02;4.95;;;11.50;72.70;;;;;;6216379;23;20007;-77
2023/04/02 05:04:59;;;;;;;18.73;4.78;;;11.50;72.90;;;;;;6215709;23;20059;-78
2023/04/02 05:07:29;;;;;;;19.33;5.32;;;11.40;72.80;;;;;;6215813;23;20335;-78
2023/04/02 05:10:38;;;;;;;18.52;5.25;;;11.40;72.80;;;;;;6215639;23;20004;-79
2023/04/02 05:13:15;;;;;;;18.95;4.55;;;11.40;72.90;;;;;;6158755;23;20498;-77
2023/04/02 05:15:51;;;;;;;18.63;4.80;;;11.50;73.00;;;;;;6215210;23;20008;-79
2023/04/02 05:18:29;;;;;;;17.98;4.72;;;11.40;72.70;;;;;;6215337;23;20008;-78
2023/04/02 05:21:17;;;;;;;20.23;5.47;;;11.40;72.80;;;;;;6215464;23;20326;-78
2023/04/02 05:24:31;;;;;;;17.80;4.90;;;11.50;72.70;;;;;;6215198;23;20068;-78
2023/04/02 05:27:02;;;;;;;18.60;5.30;;;11.50;72.80;;;;;;6204653;23;20074;-78
2023/04/02 05:29:35;;;;;;;18.88;5.25;;;11.60;72.70;;;;;;6215365;23;20008;-79
2023/04/02 05:32:08;;;;;;;16.67;5.15;;;11.70;72.70;;;;;;6215677;23;20062;-80
2023/04/02 05:34:38;;;;;;;17.92;5.10;;;11.70;72.50;;;;;;6215496;23;20471;-79
2023/04/02 05:37:05;;;;;;;15.88;5.30;;;11.80;72.40;;;;;;6215398;23;20011;-78
2023/04/02 05:39:31;;;;;;;26.35;6.65;;;11.90;72.30;;;;;;6215063;23;20038;-79
2023/04/02 05:42:07;;;;;;;21.13;7.00;;;11.90;72.30;;;;;;6215506;23;20019;-79
2023/04/02 05:44:35;;;;;;;25.48;5.80;;;11.90;72.30;;;;;;6215328;23;20000;-79
2023/04/02 05:47:06;;;;;;;22.20;6.00;;;11.90;72.30;;;;;;6214934;23;20385;-78
2023/04/02 05:49:38;;;;;;;16.92;5.35;;;11.90;72.20;;;;;;6214607;23;20372;-80
2023/04/02 05:52:10;;;;;;;18.40;4.97;;;11.90;72.50;;;;;;6214518;23;20050;-78
2023/04/02 05:54:43;;;;;;;17.48;5.32;;;12.00;72.60;;;;;;6215006;23;20004;-79
2023/04/02 05:57:15;;;;;;;22.17;5.75;;;12.00;72.50;;;;;;6215199;23;20012;-77
2023/04/02 05:59:52;;;;;;;15.30;5.45;;;12.10;72.50;;;;;;6215387;23;20334;-78
2023/04/02 06:02:41;;;;;;;21.80;5.68;;;12.20;72.60;;;;;;6235182;23;20001;-79
2023/04/02 06:05:21;;;;;;;20.67;5.80;;;12.30;72.50;;;;;;6234922;23;20039;-79
2023/04/02 06:07:52;;;;;;;18.65;4.95;;;12.40;72.20;;;;;;6216084;23;20001;-78
2023/04/02 06:10:31;;;;;;;21.38;6.15;;;12.50;72.30;;;;;;6215531;23;20012;-79
2023/04/02 06:13:05;;;;;;;19.13;5.82;;;12.70;71.90;;;;;;6215289;23;20339;-78
2023/04/02 06:15:34;;;;;;;18.10;5.40;;;12.80;71.80;;;;;;6214924;23;20059;-77
2023/04/02 06:18:07;;;;;;;17.83;5.13;;;12.90;71.50;;;;;;6215221;23;20032;-79
2023/04/02 06:20:33;;;;;;;12.95;4.10;;;13.00;70.90;;;;;;6215056;23;20001;-78
2023/04/02 06:23:20;;;;;;;17.42;4.63;;;13.10;70.40;;;;;;6215164;23;20403;-78
2023/04/02 06:25:51;;;;;;;20.42;4.60;;;13.20;70.30;;;;;;6187994;23;20011;-76
2023/04/02 06:28:25;;;;;;;12.98;4.68;;;13.20;69.00;;;;;;6214962;23;20058;-78
2023/04/02 06:30:56;;;;;;;13.45;4.20;;;13.50;69.00;;;;;;6214733;23;20038;-78
2023/04/02 06:33:22;;;;;;;15.90;4.20;;;13.60;68.40;;;;;;6214606;23;20028;-80
2023/04/02 06:35:50;;;;;;;14.35;4.47;;;13.80;67.90;;;;;;6214458;23;20051;-78
2023/04/02 06:38:25;;;;;;;13.88;4.20;;;14.00;67.20;;;;;;6214858;23;20000;-78
2023/04/02 06:41:01;;;;;;;20.52;5.47;;;14.00;66.70;;;;;;6214830;23;20000;-78
2023/04/02 06:43:35;;;;;;;17.25;4.38;;;14.10;66.30;;;;;;6214997;23;20004;-79
2023/04/02 06:46:31;;;;;;;22.02;5.75;;;14.30;66.30;;;;;;6214875;23;20104;-78
2023/04/02 06:49:09;;;;;;;20.15;5.13;;;14.40;66.30;;;;;;6214098;23;20009;-78
2023/04/02 06:51:35;;;;;;;19.85;5.82;;;14.50;66.20;;;;;;6215056;23;20012;-79
2023/04/02 06:54:01;;;;;;;17.63;5.45;;;14.70;66.00;;;;;;6214950;23;19997;-78
2023/04/02 06:56:43;;;;;;;18.98;5.00;;;14.90;66.20;;;;;;6214902;23;20001;-78
2023/04/02 06:59:11;;;;;;;21.83;5.60;;;15.00;66.20;;;;;;6215067;23;20000;-77
2023/04/02 07:01:53;;;;;;;21.00;6.10;;;15.20;65.30;;;;;;6214886;23;20009;-78
2023/04/02 07:04:20;;;;;;;24.55;6.03;;;15.40;65.70;;;;;;6214992;23;20000;-77
2023/04/02 07:06:46;;;;;;;19.08;4.80;;;15.50;65.10;;;;;;6214887;23;20485;-77
2023/04/02 07:09:12;;;;;;;18.63;5.47;;;15.60;64.90;;;;;;6215331;23;20043;-77
2023/04/02 07:11:38;;;;;;;23.13;5.70;;;15.70;65.10;;;;;;6215360;23;20025;-78
2023/04/02 07:14:04;;;;;;;21.25;6.45;;;15.70;65.10;;;;;;6214763;23;20023;-78
2023/04/02 07:16:33;;;;;;;24.17;6.22;;;15.80;65.50;;;;;;6215077;23;20020;-79
2023/04/02 07:18:59;;;;;;;20.08;5.68;;;16.00;65.30;;;;;;6214931;23;19996;-78
2023/04/02 07:21:27;;;;;;;17.60;5.07;;;16.10;65.10;;;;;;6215043;23;20015;-79
2023/04/02 07:23:53;;;;;;;23.50;6.00;;;16.20;65.60;;;;;;6215053;23;20001;-79
2023/04/02 07:26:22;;;;;;;26.52;7.47;;;16.30;65.70;;;;;;6215914;23;20095;-78
2023/04/02 07:28:48;;;;;;;28.45;6.50;;;16.40;65.40;;;;;;6188392;23;20022;-78
2023/04/02 07:31:25;;;;;;;24.35;6.82;;;16.20;65.20;;;;;;6187976;23;20021;-79
2023/04/02 07:33:56;;;;;;;27.77;9.00;;;16.20;66.20;;;;;;6214654;23;20084;-79
2023/04/02 07:36:23;;;;;;;25.67;6.60;;;16.20;65.80;;;;;;6214809;23;20012;-79
2023/04/02 07:38:49;;;;;;;26.52;7.40;;;16.20;65.90;;;;;;6214628;23;20067;-80
2023/04/02 07:41:15;;;;;;;26.25;6.55;;;16.20;65.90;;;;;;6214737;23;20363;-79
2023/04/02 07:43:42;;;;;;;25.70;7.82;;;16.20;65.80;;;;;;6214345;23;20103;-79
2023/04/02 07:46:10;;;;;;;21.30;7.00;;;16.20;66.00;;;;;;6214209;23;20131;-80
2023/04/02 07:48:36;;;;;;;29.88;7.22;;;16.20;66.00;;;;;;6215494;23;19997;-79
2023/04/02 07:51:02;;;;;;;28.08;9.43;;;16.30;66.70;;;;;;6216112;23;20016;-78
2023/04/02 07:53:36;;;;;;;36.13;9.57;;;16.30;66.00;;;;;;6216423;23;20001;-79
2023/04/02 07:56:03;;;;;;;23.17;6.43;;;16.40;66.50;;;;;;6216576;23;20329;-78
2023/04/02 07:58:30;;;;;;;29.63;7.45;;;16.40;65.90;;;;;;6189529;23;20079;-79
2023/04/02 08:00:56;;;;;;;26.75;6.40;;;16.40;65.80;;;;;;6216147;23;20004;-78
2023/04/02 08:03:22;;;;;;;24.38;6.55;;;16.50;65.90;;;;;;6216387;23;20005;-78
2023/04/02 08:05:57;;;;;;;31.08;6.72;;;16.60;65.80;;;;;;6215997;23;19997;-79
2023/04/02 08:08:24;;;;;;;21.52;7.13;;;16.60;65.40;;;;;;6216053;23;20007;-79
2023/04/02 08:10:50;;;;;;;31.30;9.68;;;16.60;65.50;;;;;;6215955;23;20031;-80
2023/04/02 08:13:16;;;;;;;22.50;6.93;;;16.70;65.40;;;;;;6216112;23;20096;-78
2023/04/02 08:15:43;;;;;;;26.70;6.22;;;16.80;65.30;;;;;;6216185;23;20051;-78
2023/04/02 08:18:10;;;;;;;17.92;6.35;;;16.80;65.00;;;;;;6215731;23;20005;-79
2023/04/02 08:20:35;;;;;;;26.40;7.88;;;16.80;65.00;;;;;;6216190;23;20007;-79
2023/04/02 08:23:02;;;;;;;24.52;6.65;;;17.00;65.00;;;;;;6215795;23;20016;-79
2023/04/02 08:25:28;;;;;;;28.58;8.40;;;16.90;64.70;;;;;;6215683;23;20027;-78
2023/04/02 08:27:54;;;;;;;28.77;7.45;;;17.00;65.10;;;;;;6215935;23;20005;-78
2023/04/02 08:30:20;;;;;;;24.42;7.50;;;17.00;65.20;;;;;;6216199;23;20004;-79
2023/04/02 08:32:45;;;;;;;22.52;7.15;;;17.10;65.10;;;;;;6215749;23;20040;-79
2023/04/02 08:35:15;;;;;;;24.02;7.15;;;17.20;64.80;;;;;;6216189;23;20001;-79
2023/04/02 08:37:41;;;;;;;20.73;6.70;;;17.40;64.70;;;;;;6215980;23;20007;-78
2023/04/02 08:40:27;;;;;;;21.08;6.65;;;17.50;64.70;;;;;;6216318;23;20001;-79
2023/04/02 08:43:24;;;;;;;29.45;6.47;;;17.70;64.80;;;;;;6216442;23;20067;-77
2023/04/02 08:45:52;;;;;;;20.88;6.43;;;17.90;63.90;;;;;;6215996;23;20104;-78
2023/04/02 08:48:19;;;;;;;24.17;6.10;;;17.90;63.50;;;;;;6216620;23;20005;-79
2023/04/02 08:50:45;;;;;;;21.17;5.80;;;17.90;63.20;;;;;;6215773;23;19997;-79
2023/04/02 08:53:21;;;;;;;24.65;5.97;;;17.90;62.60;;;;;;6216003;23;20312;-77
2023/04/02 08:56:04;;;;;;;20.73;6.32;;;17.80;61.80;;;;;;6215774;23;20001;-79
2023/04/02 08:58:42;;;;;;;23.38;5.72;;;17.70;61.90;;;;;;6215125;23;20008;-78
2023/04/02 09:01:35;;;;;;;20.80;5.68;;;17.60;61.30;;;;;;6215323;23;20031;-78
2023/04/02 09:04:04;;;;;;;19.38;4.82;;;17.50;60.80;;;;;;6215787;23;20005;-79
2023/04/02 09:06:30;;;;;;;18.08;4.97;;;17.40;61.20;;;;;;6215565;23;20020;-79
2023/04/02 09:08:59;;;;;;;13.05;4.60;;;17.40;61.20;;;;;;6215576;23;20066;-79
2023/04/02 09:11:50;;;;;;;21.58;4.85;;;17.50;60.70;;;;;;6215196;23;20342;-79
2023/04/02 09:14:44;;;;;;;16.92;4.85;;;17.40;60.00;;;;;;6216355;23;20024;-78
2023/04/02 09:17:25;;;;;;;21.73;4.72;;;17.40;60.00;;;;;;6203834;23;20044;-79
2023/04/02 09:19:56;;;;;;;19.20;5.68;;;17.30;60.00;;;;;;6216174;23;20005;-75
2023/04/02 09:22:25;;;;;;;16.75;5.22;;;17.30;60.30;;;;;;6233795;23;20027;-78
2023/04/02 09:24:57;;;;;;;21.48;5.53;;;17.40;60.40;;;;;;6230757;23;20001;-79
2023/04/02 09:27:28;;;;;;;19.75;5.47;;;17.40;60.00;;;;;;6217381;23;20323;-79
2023/04/02 09:30:02;;;;;;;21.42;6.20;;;17.50;60.30;;;;;;6215547;23;20055;-78
2023/04/02 09:32:34;;;;;;;19.02;5.25;;;17.50;60.50;;;;;;6215090;23;20019;-78
2023/04/02 09:35:15;;;;;;;20.77;5.20;;;17.50;60.70;;;;;;6215533;23;20001;-77
2023/04/02 09:37:43;;;;;;;17.25;4.70;;;17.60;60.80;;;;;;6215038;23;20015;-77
2023/04/02 09:40:19;;;;;;;17.60;5.50;;;17.70;60.90;;;;;;6215065;23;20004;-79
2023/04/02 09:42:45;;;;;;;18.98;4.78;;;17.70;61.00;;;;;;6215613;23;20371;-79
2023/04/02 09:45:13;;;;;;;22.23;6.00;;;17.80;60.80;;;;;;6215295;23;20035;-79
2023/04/02 09:47:40;;;;;;;17.13;4.60;;;17.90;60.40;;;;;;6215338;23;20072;-78
2023/04/02 09:50:22;;;;;;;20.73;5.40;;;18.10;60.00;;;;;;6189363;23;20012;-78
2023/04/02 09:52:48;;;;;;;17.05;4.65;;;18.20;59.70;;;;;;6216611;23;20019;-78
2023/04/02 09:55:17;;;;;;;25.08;5.28;;;18.20;58.80;;;;;;6215826;23;20019;-79
2023/04/02 09:57:45;;;;;;;13.20;4.25;;;18.30;58.90;;;;;;6215461;23;20017;-80
2023/04/02 10:00:27;;;;;;;15.80;4.10;;;18.40;58.70;;;;;;6215014;23;20012;-78
2023/04/02 10:03:13;;;;;;;19.63;4.63;;;18.50;58.20;;;;;;6214546;23;20024;-78
2023/04/02 10:05:40;;;;;;;19.75;5.13;;;18.50;58.50;;;;;;6214836;23;20008;-80
2023/04/02 10:08:24;;;;;;;20.45;5.45;;;18.60;57.80;;;;;;6214649;23;20004;-78
2023/04/02 10:10:51;;;;;;;;;;;18.70;57.90;;;;;;6188046;23;20005;-78
2023/04/02 10:13:50;;;;;;;15.48;4.18;;;18.70;56.80;;;;;;6214880;23;19942;-78
2023/04/02 10:16:39;;;;;;;17.13;3.97;;;18.70;57.30;;;;;;6187562;23;20107;-79
2023/04/02 10:19:30;;;;;;;14.48;4.32;;;18.90;56.80;;;;;;6215082;23;20383;-78
2023/04/02 10:21:59;;;;;;;15.95;3.60;;;19.10;55.80;;;;;;6214848;23;20055;-77
2023/04/02 10:24:27;;;;;;;17.05;4.35;;;19.30;55.00;;;;;;6215096;23;20071;-79
2023/04/02 10:27:03;;;;;;;24.67;4.97;;;19.50;54.30;;;;;;6188317;23;20063;-78
2023/04/02 10:29:51;;;;;;;18.55;4.00;;;19.50;53.70;;;;;;6214444;23;20036;-78
2023/04/02 10:32:40;;;;;;;14.82;4.05;;;19.80;53.70;;;;;;6214854;23;20023;-79
2023/04/02 10:35:06;;;;;;;17.75;4.35;;;20.00;52.80;;;;;;6214748;23;20438;-79
2023/04/02 10:38:10;;;;;;;17.85;4.15;;;20.10;52.70;;;;;;6188346;23;20038;-79
2023/04/02 10:41:09;;;;;;;18.83;3.97;;;20.20;52.50;;;;;;6215012;23;20000;-79
2023/04/02 10:43:37;;;;;;;15.65;3.95;;;20.40;52.60;;;;;;6215421;23;20032;-78
2023/04/02 10:46:30;;;;;;;18.10;5.13;;;20.50;52.80;;;;;;6214486;23;20008;-78
2023/04/02 10:49:09;;;;;;;18.08;3.90;;;20.50;52.50;;;;;;6215021;23;20007;-78
2023/04/02 10:51:45;;;;;;;16.60;3.65;;;20.50;53.00;;;;;;6214798;23;20020;-78
2023/04/02 10:54:41;;;;;;;14.77;3.92;;;20.40;53.20;;;;;;6215048;23;20403;-79
2023/04/02 10:57:19;;;;;;;15.30;4.15;;;20.20;51.70;;;;;;6215116;23;20011;-79
2023/04/02 10:59:58;;;;;;;20.30;4.30;;;20.10;53.10;;;;;;6214676;23;20001;-77
2023/04/02 11:02:34;;;;;;;15.18;4.57;;;20.10;52.30;;;;;;6214990;23;19997;-78
2023/04/02 11:05:12;;;;;;;17.10;4.45;;;20.20;54.00;;;;;;6215037;23;20151;-79
2023/04/02 11:08:07;;;;;;;21.88;4.25;;;20.20;54.00;;;;;;6190741;23;20147;-78
2023/04/02 11:10:37;;;;;;;16.70;4.60;;;20.20;52.70;;;;;;6158867;23;20088;-79
2023/04/02 11:13:19;;;;;;;18.20;4.55;;;20.20;53.60;;;;;;6214916;23;20095;-80
2023/04/02 11:15:45;;;;;;;15.73;4.55;;;20.20;53.60;;;;;;6214714;23;20034;-79
2023/04/02 11:18:24;;;;;;;21.67;4.90;;;20.20;53.80;;;;;;6215222;23;20451;-78
2023/04/02 11:20:57;;;;;;;18.08;4.07;;;20.20;54.00;;;;;;6214797;23;20008;-78
2023/04/02 11:23:26;;;;;;;17.55;4.03;;;20.20;53.80;;;;;;6217340;23;20009;-77
2023/04/02 11:26:31;;;;;;;17.75;4.20;;;20.30;53.70;;;;;;6218808;23;20481;-78
2023/04/02 11:29:11;;;;;;;20.65;4.60;;;20.50;53.30;;;;;;6216810;23;20000;-78
2023/04/02 11:31:36;;;;;;;20.73;3.65;;;20.70;53.60;;;;;;6216457;23;20348;-79
2023/04/02 11:34:02;;;;;;;19.30;4.45;;;20.80;53.50;;;;;;6216408;23;20001;-77
2023/04/02 11:36:49;;;;;;;18.25;4.13;;;20.80;53.20;;;;;;6216745;23;20020;-78
2023/04/02 11:39:49;;;;;;;16.02;4.28;;;20.80;52.80;;;;;;6216040;23;20004;-78
2023/04/02 11:42:18;;;;;;;17.80;4.15;;;20.80;52.60;;;;;;6216389;23;20423;-79
2023/04/02 11:44:44;;;;;;;19.73;4.53;;;20.70;52.90;;;;;;6189336;23;20009;-79
2023/04/02 11:47:28;;;;;;;19.15;4.57;;;20.70;52.80;;;;;;6216476;23;20025;-79
2023/04/02 11:49:54;;;;;;;23.05;5.18;;;20.60;52.50;;;;;;6189436;23;20389;-79
2023/04/02 11:52:23;;;;;;;15.40;4.85;;;20.60;52.70;;;;;;6216379;23;20013;-79
2023/04/02 11:54:58;;;;;;;17.90;4.25;;;20.60;52.70;;;;;;6216191;23;20032;-78
2023/04/02 11:57:45;;;;;;;15.02;3.83;;;20.50;52.30;;;;;;6216141;23;20000;-78
2023/04/02 12:00:29;;;;;;;22.85;3.92;;;20.60;52.40;;;;;;6216453;23;20342;-78
2023/04/02 12:03:20;;;;;;;15.90;4.10;;;20.70;52.50;;;;;;6216317;23;20055;-78
2023/04/02 12:06:18;;;;;;;19.08;4.32;;;20.80;51.60;;;;;;6216086;23;20378;-78
2023/04/02 12:09:11;;;;;;;18.60;4.55;;;20.90;51.80;;;;;;6167387;23;20167;-80
2023/04/02 12:11:39;;;;;;;21.42;5.40;;;20.90;50.80;;;;;;6170879;23;20062;-79
2023/04/02 12:14:29;;;;;;;17.27;4.60;;;21.00;51.50;;;;;;6189149;23;20008;-77
2023/04/02 12:16:56;;;;;;;13.65;3.92;;;21.10;50.00;;;;;;6215941;23;20020;-78
2023/04/02 12:19:23;;;;;;;13.45;3.30;;;21.10;51.20;;;;;;6189123;23;20012;-79
2023/04/02 12:21:51;;;;;;;15.68;3.58;;;21.10;51.10;;;;;;6189202;23;20434;-77
2023/04/02 12:24:22;;;;;;;16.35;4.50;;;21.10;50.90;;;;;;6216163;23;20165;-79
2023/04/02 12:26:48;;;;;;;14.07;3.92;;;21.10;51.10;;;;;;6215351;23;20009;-76
2023/04/02 12:29:15;;;;;;;16.77;4.18;;;21.10;50.80;;;;;;6216045;23;20004;-79
2023/04/02 12:31:46;;;;;;;17.95;4.43;;;21.10;50.80;;;;;;6215882;23;20058;-80
2023/04/02 12:34:20;;;;;;;14.85;4.95;;;21.10;51.00;;;;;;6189149;23;20008;-80
2023/04/02 12:37:03;;;;;;;16.13;4.15;;;21.20;49.30;;;;;;6216936;23;20040;-80
2023/04/02 12:39:32;;;;;;;13.32;3.95;;;21.30;50.80;;;;;;6222019;23;20004;-78
2023/04/02 12:41:57;;;;;;;13.52;3.58;;;21.30;50.90;;;;;;6222131;23;20007;-80
2023/04/02 12:44:26;;;;;;;16.80;4.25;;;21.20;50.80;;;;;;6218935;23;20000;-78
2023/04/02 12:46:52;;;;;;;13.95;4.00;;;21.30;51.00;;;;;;6216759;23;19996;-79
2023/04/02 12:49:38;;;;;;;21.30;4.75;;;21.30;50.50;;;;;;6189376;23;20036;-77
2023/04/02 12:52:10;;;;;;;19.00;4.28;;;21.30;48.90;;;;;;6215957;23;20020;-79
2023/04/02 12:54:48;;;;;;;17.23;4.10;;;21.10;50.80;;;;;;6216285;23;20080;-79
2023/04/02 12:57:25;;;;;;;18.33;4.45;;;21.10;51.10;;;;;;6215896;23;20048;-79
2023/04/02 12:59:58;;;;;;;19.83;4.68;;;21.10;49.10;;;;;;6215922;23;19997;-80
2023/04/02 13:02:29;;;;;;;19.27;3.75;;;21.00;49.40;;;;;;6215952;23;20083;-80
2023/04/02 13:05:01;;;;;;;20.30;4.07;;;21.00;49.60;;;;;;6216013;23;20383;-78
2023/04/02 13:07:32;;;;;;;13.80;4.00;;;21.20;51.20;;;;;;6189395;23;20098;-79
2023/04/02 13:10:00;;;;;;;12.98;3.90;;;21.30;51.00;;;;;;6215915;23;20004;-77
2023/04/02 13:12:36;;;;;;;20.23;4.25;;;21.50;51.00;;;;;;6215774;23;20019;-80
2023/04/02 13:15:32;;;;;;;16.67;4.43;;;21.60;49.50;;;;;;6216328;23;20079;-79
2023/04/02 13:18:13;;;;;;;18.45;4.45;;;21.70;49.30;;;;;;6214128;23;20025;-78